Time;durP1;ratioP1;P1;durP2;ratioP2;P2;SDS_P1;SDS_P2;PMS_P1;PMS_P2;Temp;Humidity;BMP_temperature;BMP_pressure;BME280_temperature;BME280_humidity;BME280_pressure;Samples;Min_cycle;Max_cycle;Signal;HPM_P1;HPM_P2
2024/03/24 00:00:21;;;;;;;4.90;2.35;;;6.30;86.70;;;;;;5072690;28;20539;-32
2024/03/24 00:02:46;;;;;;;4.47;2.17;;;6.30;86.70;;;;;;5071201;28;20366;-34
2024/03/24 00:05:12;;;;;;;4.00;2.03;;;6.30;86.80;;;;;;5072224;28;20388;-32
2024/03/24 00:07:38;;;;;;;3.05;2.17;;;6.30;86.80;;;;;;5072658;28;20020;-34
2024/03/24 00:10:04;;;;;;;3.95;2.25;;;6.40;86.80;;;;;;5072384;28;20459;-33
2024/03/24 00:12:30;;;;;;;4.53;2.35;;;6.40;86.80;;;;;;5072446;28;20039;-33
2024/03/24 00:14:56;;;;;;;5.47;2.50;;;6.50;86.90;;;;;;5072337;28;20016;-34
2024/03/24 00:17:21;;;;;;;5.13;2.55;;;6.50;86.80;;;;;;5072216;28;20044;-33
2024/03/24 00:19:47;;;;;;;6.53;2.13;;;6.50;86.90;;;;;;5072294;28;20028;-34
2024/03/24 00:22:13;;;;;;;4.00;2.58;;;6.50;86.80;;;;;;5072004;28;20025;-33
2024/03/24 00:24:39;;;;;;;5.50;2.53;;;6.50;86.90;;;;;;5072036;28;20025;-34
2024/03/24 00:27:04;;;;;;;6.60;2.67;;;6.60;87.00;;;;;;5072205;28;20101;-33
2024/03/24 00:29:30;;;;;;;4.00;2.80;;;6.60;87.00;;;;;;5071957;28;20028;-33
2024/03/24 00:31:56;;;;;;;4.70;2.70;;;6.60;87.20;;;;;;5072113;28;20017;-34
2024/03/24 00:34:21;;;;;;;6.20;2.70;;;6.60;87.10;;;;;;5071930;28;20040;-34
2024/03/24 00:36:47;;;;;;;6.63;2.92;;;6.60;87.30;;;;;;5071833;28;20045;-34
2024/03/24 00:39:12;;;;;;;7.05;3.83;;;6.60;87.40;;;;;;5071736;28;20054;-33
2024/03/24 00:41:38;;;;;;;7.15;3.35;;;6.60;87.70;;;;;;5071677;28;20499;-34
2024/03/24 00:44:03;;;;;;;7.43;3.25;;;6.60;87.80;;;;;;5071601;28;20030;-33
2024/03/24 00:46:29;;;;;;;8.55;3.50;;;6.60;87.90;;;;;;5071854;28;20078;-33
2024/03/24 00:48:55;;;;;;;5.72;2.85;;;6.60;88.10;;;;;;5071866;28;20129;-33
2024/03/24 00:51:20;;;;;;;7.03;3.67;;;6.60;88.30;;;;;;5071816;28;20028;-33
2024/03/24 00:53:46;;;;;;;7.65;3.20;;;6.70;88.50;;;;;;5053663;28;20033;-37
2024/03/24 00:56:12;;;;;;;6.68;3.47;;;6.70;88.50;;;;;;5071637;28;20039;-31
2024/03/24 00:58:37;;;;;;;4.30;2.83;;;6.70;88.60;;;;;;5071609;28;20168;-32
2024/03/24 01:01:04;;;;;;;4.53;2.88;;;6.70;88.80;;;;;;5071857;28;20431;-32
2024/03/24 01:03:30;;;;;;;5.82;3.20;;;6.70;88.90;;;;;;5070159;28;20038;-32
2024/03/24 01:05:55;;;;;;;6.50;3.22;;;6.70;89.00;;;;;;5070586;28;20032;-32
2024/03/24 01:08:21;;;;;;;5.95;3.40;;;6.70;89.40;;;;;;5071820;28;20111;-31
2024/03/24 01:10:47;;;;;;;5.05;3.10;;;6.70;89.30;;;;;;5070117;28;20479;-31
2024/03/24 01:13:12;;;;;;;9.25;3.65;;;6.70;89.50;;;;;;5071589;28;20017;-33
2024/03/24 01:15:44;;;;;;;5.10;3.28;;;6.70;89.60;;;;;;5071308;28;20055;-34
2024/03/24 01:18:09;;;;;;;4.50;3.30;;;6.70;89.80;;;;;;5071386;28;20400;-34
2024/03/24 01:20:35;;;;;;;6.18;3.55;;;6.70;89.80;;;;;;5071081;28;20210;-32
2024/03/24 01:23:00;;;;;;;6.90;3.45;;;6.70;90.00;;;;;;5071098;28;20044;-33
2024/03/24 01:25:26;;;;;;;5.45;3.28;;;6.70;90.00;;;;;;5071297;28;20466;-37
2024/03/24 01:27:52;;;;;;;10.90;4.05;;;6.70;90.00;;;;;;5071286;28;20025;-36
2024/03/24 01:30:17;;;;;;;4.63;3.30;;;6.70;90.20;;;;;;5071235;28;20055;-35
2024/03/24 01:32:43;;;;;;;5.10;3.20;;;6.60;90.20;;;;;;5071168;28;20087;-36
2024/03/24 01:35:09;;;;;;;6.43;4.00;;;6.60;90.20;;;;;;5070947;28;20036;-39
2024/03/24 01:37:35;;;;;;;5.68;3.92;;;6.60;90.30;;;;;;5070976;28;20118;-39
2024/03/24 01:40:02;;;;;;;5.82;3.95;;;6.60;90.30;;;;;;5071158;28;20384;-35
2024/03/24 01:42:28;;;;;;;7.85;3.97;;;6.50;90.40;;;;;;5071253;28;20389;-38
2024/03/24 01:44:54;;;;;;;6.10;3.70;;;6.60;90.40;;;;;;5070742;28;20036;-38
2024/03/24 01:47:20;;;;;;;6.38;3.88;;;6.60;90.50;;;;;;5070903;28;20064;-35
2024/03/24 01:49:45;;;;;;;7.95;4.05;;;6.60;90.50;;;;;;5071182;28;20524;-37
2024/03/24 01:52:13;;;;;;;5.78;3.63;;;6.50;90.50;;;;;;5071036;28;20103;-36
2024/03/24 01:54:39;;;;;;;5.28;3.75;;;6.60;90.50;;;;;;5070794;28;20020;-42
2024/03/24 01:57:05;;;;;;;6.15;3.90;;;6.60;90.50;;;;;;5070858;28;20106;-36
2024/03/24 01:59:30;;;;;;;5.22;3.78;;;6.50;90.50;;;;;;5070908;28;20056;-37
2024/03/24 02:01:56;;;;;;;8.32;4.30;;;6.50;90.70;;;;;;5070872;28;20024;-36
2024/03/24 02:04:22;;;;;;;5.15;3.95;;;6.50;90.80;;;;;;5070701;28;20074;-36
2024/03/24 02:06:48;;;;;;;6.63;4.40;;;6.50;90.90;;;;;;5070970;28;20028;-36
2024/03/24 02:09:14;;;;;;;6.70;4.88;;;6.50;90.80;;;;;;5070682;28;20024;-36
2024/03/24 02:11:39;;;;;;;9.07;5.55;;;6.40;90.90;;;;;;5071128;28;20028;-37
2024/03/24 02:14:05;;;;;;;7.38;4.68;;;6.50;90.90;;;;;;5070835;28;20062;-36
2024/03/24 02:16:30;;;;;;;7.60;4.50;;;6.50;91.00;;;;;;5072710;28;20329;-35
2024/03/24 02:18:56;;;;;;;9.18;4.93;;;6.50;91.00;;;;;;5074268;28;20046;-37
2024/03/24 02:21:22;;;;;;;7.97;4.45;;;6.50;91.00;;;;;;5074552;28;20036;-36
2024/03/24 02:23:51;;;;;;;6.68;4.43;;;6.50;91.00;;;;;;5074567;28;20495;-37
2024/03/24 02:26:17;;;;;;;8.68;4.80;;;6.50;91.10;;;;;;5074205;28;20056;-37
2024/03/24 02:28:43;;;;;;;7.90;4.43;;;6.50;91.10;;;;;;5074061;28;20110;-36
2024/03/24 02:31:09;;;;;;;11.77;5.15;;;6.60;91.10;;;;;;5074257;28;20020;-37
2024/03/24 02:33:34;;;;;;;5.93;3.83;;;6.60;91.10;;;;;;5074232;28;20028;-36
2024/03/24 02:36:00;;;;;;;8.98;4.53;;;6.60;91.10;;;;;;5073816;28;20536;-37
2024/03/24 02:38:26;;;;;;;6.88;4.20;;;6.60;91.20;;;;;;5074324;28;20032;-36
2024/03/24 02:40:51;;;;;;;8.32;4.20;;;6.70;91.20;;;;;;5073921;28;20431;-35
2024/03/24 02:43:17;;;;;;;9.55;4.55;;;6.70;91.20;;;;;;5073873;28;20056;-36
2024/03/24 02:45:43;;;;;;;6.53;4.07;;;6.70;91.30;;;;;;5073633;28;20021;-35
2024/03/24 02:48:08;;;;;;;12.95;4.75;;;6.60;91.40;;;;;;5073824;28;20016;-36
2024/03/24 02:50:34;;;;;;;8.98;4.45;;;6.60;91.50;;;;;;5073865;28;20025;-34
2024/03/24 02:53:01;;;;;;;5.90;3.38;;;6.60;91.60;;;;;;5073848;28;20423;-35
2024/03/24 02:55:26;;;;;;;4.72;2.55;;;6.50;91.70;;;;;;5073587;28;20112;-35
2024/03/24 02:57:52;;;;;;;3.38;2.25;;;6.40;91.70;;;;;;5073810;28;20060;-34
2024/03/24 03:00:18;;;;;;;6.05;3.67;;;6.30;91.80;;;;;;5073643;28;20016;-36
2024/03/24 03:02:44;;;;;;;4.88;3.33;;;6.20;92.00;;;;;;5073507;28;20029;-34
2024/03/24 03:05:10;;;;;;;5.90;3.25;;;6.20;92.20;;;;;;5073598;28;20118;-35
2024/03/24 03:07:36;;;;;;;5.15;2.97;;;6.20;92.30;;;;;;5073550;28;20103;-36
2024/03/24 03:10:07;;;;;;;4.97;3.08;;;6.10;92.30;;;;;;5073640;28;20028;-35
2024/03/24 03:12:36;;;;;;;5.80;2.97;;;6.10;92.40;;;;;;5073546;28;20027;-33
2024/03/24 03:15:05;;;;;;;6.35;3.40;;;6.20;92.40;;;;;;5073388;28;20025;-35
2024/03/24 03:17:31;;;;;;;7.35;3.70;;;6.20;92.40;;;;;;5073404;28;20051;-36
2024/03/24 03:19:57;;;;;;;6.45;3.55;;;6.20;92.50;;;;;;5073426;28;20043;-36
2024/03/24 03:22:23;;;;;;;9.27;4.13;;;6.30;92.60;;;;;;5073520;28;20138;-36
2024/03/24 03:24:49;;;;;;;6.85;3.90;;;6.30;92.70;;;;;;5072907;28;20449;-36
2024/03/24 03:27:14;;;;;;;6.78;4.28;;;6.30;92.60;;;;;;5072602;28;20123;-34
2024/03/24 03:29:40;;;;;;;7.63;4.43;;;6.40;92.70;;;;;;5073127;28;20481;-36
2024/03/24 03:32:06;;;;;;;5.70;3.80;;;6.40;92.80;;;;;;5073177;28;20097;-35
2024/03/24 03:34:31;;;;;;;7.20;4.10;;;6.40;92.80;;;;;;5072836;28;20020;-37
2024/03/24 03:36:57;;;;;;;8.75;4.53;;;6.40;92.80;;;;;;5073086;28;20148;-36
2024/03/24 03:39:22;;;;;;;6.10;4.10;;;6.40;92.80;;;;;;5073316;28;20430;-34
2024/03/24 03:41:48;;;;;;;6.97;3.83;;;6.50;92.80;;;;;;5072899;28;20031;-35
2024/03/24 03:44:13;;;;;;;6.13;3.80;;;6.50;92.90;;;;;;5072684;28;20112;-35
2024/03/24 03:46:39;;;;;;;7.45;4.35;;;6.60;92.80;;;;;;5073021;28;20016;-36
2024/03/24 03:49:04;;;;;;;6.22;3.90;;;6.60;92.80;;;;;;5073069;28;20046;-36
2024/03/24 03:51:37;;;;;;;5.85;4.15;;;6.60;92.90;;;;;;5072815;28;20125;-37
2024/03/24 03:54:04;;;;;;;7.82;3.97;;;6.60;93.20;;;;;;5072820;28;20047;-35
2024/03/24 03:56:30;;;;;;;5.80;3.42;;;6.60;92.90;;;;;;5072669;28;20024;-36
2024/03/24 03:58:55;;;;;;;6.88;2.60;;;6.60;92.90;;;;;;5072417;28;20038;-34
2024/03/24 04:01:21;;;;;;;4.20;2.40;;;6.50;92.90;;;;;;5072304;28;20396;-35
2024/03/24 04:03:47;;;;;;;3.67;1.88;;;6.30;92.60;;;;;;5072418;28;20094;-35
2024/03/24 04:06:12;;;;;;;3.78;1.67;;;6.10;92.80;;;;;;5072326;28;20082;-35
2024/03/24 04:08:40;;;;;;;2.53;1.42;;;6.10;93.00;;;;;;5072416;28;20009;-36
2024/03/24 04:11:07;;;;;;;2.10;0.90;;;6.00;93.00;;;;;;5072827;28;20093;-36
2024/03/24 04:13:33;;;;;;;0.90;0.70;;;5.90;93.20;;;;;;5072320;28;20028;-35
2024/03/24 04:15:58;;;;;;;2.53;0.90;;;5.80;93.00;;;;;;5072145;28;20082;-36
2024/03/24 04:18:24;;;;;;;1.77;0.80;;;5.70;93.10;;;;;;5072156;28;20063;-35
2024/03/24 04:20:50;;;;;;;1.52;0.90;;;5.60;93.10;;;;;;5072253;28;20064;-36
2024/03/24 04:23:15;;;;;;;2.67;0.80;;;5.60;93.20;;;;;;5072399;28;20021;-35
2024/03/24 04:25:41;;;;;;;1.45;0.77;;;5.50;93.20;;;;;;5070651;28;20032;-35
2024/03/24 04:28:06;;;;;;;1.60;0.90;;;5.50;93.20;;;;;;5072023;28;20055;-35
2024/03/24 04:30:32;;;;;;;2.00;1.02;;;5.60;93.30;;;;;;5072114;28;20025;-35
2024/03/24 04:33:02;;;;;;;1.90;1.02;;;5.50;93.30;;;;;;5072348;28;20374;-36
2024/03/24 04:35:27;;;;;;;1.58;1.10;;;5.50;93.20;;;;;;5072104;28;20104;-36
2024/03/24 04:37:53;;;;;;;2.50;1.38;;;5.50;93.30;;;;;;5071817;28;20496;-35
2024/03/24 04:40:18;;;;;;;6.60;1.98;;;5.50;93.30;;;;;;5071840;28;20117;-36
2024/03/24 04:42:44;;;;;;;1.52;0.82;;;5.50;93.40;;;;;;5071717;28;20024;-33
2024/03/24 04:45:10;;;;;;;2.65;1.02;;;5.50;93.40;;;;;;5071694;28;20036;-46
2024/03/24 04:47:36;;;;;;;3.20;1.20;;;5.50;93.40;;;;;;5071623;28;20051;-42
2024/03/24 04:50:03;;;;;;;1.60;1.00;;;5.50;93.40;;;;;;5071815;28;20024;-42
2024/03/24 04:52:30;;;;;;;4.03;1.30;;;5.50;93.40;;;;;;5071707;28;20020;-46
2024/03/24 04:54:57;;;;;;;2.50;1.30;;;5.50;93.40;;;;;;5071477;28;20029;-43
2024/03/24 04:57:22;;;;;;;3.72;1.48;;;5.40;93.40;;;;;;5071939;28;20377;-36
2024/03/24 04:59:48;;;;;;;1.85;1.40;;;5.40;93.40;;;;;;5070380;28;20031;-37
2024/03/24 05:02:14;;;;;;;2.00;1.30;;;5.40;93.40;;;;;;5070206;28;20100;-36
2024/03/24 05:04:40;;;;;;;4.55;1.40;;;5.40;93.50;;;;;;5071427;28;20025;-37
2024/03/24 05:07:05;;;;;;;2.58;1.35;;;5.40;93.50;;;;;;5071701;28;20094;-37
2024/03/24 05:09:31;;;;;;;4.40;1.27;;;5.40;93.50;;;;;;5071553;28;20047;-37
2024/03/24 05:11:56;;;;;;;4.70;1.38;;;5.40;93.50;;;;;;5071597;28;20027;-37
2024/03/24 05:14:22;;;;;;;2.40;1.23;;;5.40;93.50;;;;;;5071335;28;20063;-36
2024/03/24 05:16:48;;;;;;;2.10;1.45;;;5.40;93.50;;;;;;5071860;28;20040;-37
2024/03/24 05:19:14;;;;;;;4.25;1.90;;;5.40;93.50;;;;;;5071701;28;20413;-36
2024/03/24 05:21:40;;;;;;;2.90;1.25;;;5.40;93.50;;;;;;5071695;28;20035;-37
2024/03/24 05:24:06;;;;;;;2.78;1.40;;;5.40;93.50;;;;;;5071606;28;20051;-37
2024/03/24 05:26:33;;;;;;;4.65;1.33;;;5.40;93.50;;;;;;5071313;28;20029;-38
2024/03/24 05:29:02;;;;;;;1.95;1.33;;;5.50;93.50;;;;;;5071487;28;20021;-37
2024/03/24 05:31:27;;;;;;;1.50;1.20;;;5.50;93.50;;;;;;5071485;28;20021;-38
2024/03/24 05:33:53;;;;;;;2.28;1.30;;;5.50;93.60;;;;;;5071157;28;20021;-37
2024/03/24 05:36:18;;;;;;;3.20;1.48;;;5.50;93.50;;;;;;5071106;28;20127;-38
2024/03/24 05:38:44;;;;;;;1.90;1.10;;;5.50;93.50;;;;;;5071297;28;20132;-37
2024/03/24 05:41:10;;;;;;;1.50;1.05;;;5.50;93.50;;;;;;5071144;28;20079;-38
2024/03/24 05:43:36;;;;;;;1.50;1.20;;;5.50;93.50;;;;;;5071499;28;20027;-37
2024/03/24 05:46:03;;;;;;;2.85;0.98;;;5.50;93.60;;;;;;5071386;28;20441;-37
2024/03/24 05:48:29;;;;;;;3.85;1.20;;;5.50;93.60;;;;;;5071136;28;20021;-38
2024/03/24 05:51:01;;;;;;;1.65;1.08;;;5.50;93.60;;;;;;5072113;28;20189;-36
2024/03/24 05:53:27;;;;;;;1.85;1.08;;;5.50;93.90;;;;;;5075207;28;20021;-38
2024/03/24 05:55:53;;;;;;;3.45;1.38;;;5.50;93.60;;;;;;5074699;28;20051;-37
2024/03/24 05:58:19;;;;;;;2.90;1.58;;;5.60;93.70;;;;;;5075046;28;20036;-37
2024/03/24 06:00:47;;;;;;;3.58;1.40;;;5.60;93.70;;;;;;5074837;28;20029;-38
2024/03/24 06:03:14;;;;;;;3.40;1.50;;;5.60;93.60;;;;;;5074963;28;20120;-38
2024/03/24 06:05:40;;;;;;;3.08;1.38;;;5.70;93.70;;;;;;5074896;28;20028;-39
2024/03/24 06:08:09;;;;;;;3.40;1.60;;;5.70;93.60;;;;;;5074880;28;20031;-37
2024/03/24 06:10:36;;;;;;;4.90;1.63;;;5.70;93.60;;;;;;5075008;28;20024;-38
2024/03/24 06:13:01;;;;;;;2.45;1.50;;;5.80;93.60;;;;;;5074979;28;20107;-37
2024/03/24 06:15:28;;;;;;;4.60;2.00;;;5.80;93.60;;;;;;5074509;28;20587;-38
2024/03/24 06:17:53;;;;;;;5.03;1.92;;;5.80;93.90;;;;;;5074776;28;20030;-37
2024/03/24 06:20:19;;;;;;;5.15;1.88;;;5.80;93.60;;;;;;5074968;28;20496;-39
2024/03/24 06:22:44;;;;;;;3.20;1.70;;;5.80;93.60;;;;;;5074468;28;20094;-37
2024/03/24 06:25:10;;;;;;;5.88;2.30;;;5.70;93.60;;;;;;5074679;28;20028;-39
2024/03/24 06:27:36;;;;;;;5.15;1.90;;;5.70;93.60;;;;;;5074341;28;20047;-37
2024/03/24 06:30:02;;;;;;;3.47;1.90;;;5.70;93.70;;;;;;5074496;28;20020;-39
2024/03/24 06:32:27;;;;;;;4.00;2.00;;;5.70;93.70;;;;;;5074667;28;20028;-38
2024/03/24 06:34:53;;;;;;;6.20;1.60;;;5.70;93.80;;;;;;5074182;28;20533;-38
2024/03/24 06:37:19;;;;;;;4.32;1.33;;;5.70;93.80;;;;;;5074161;28;20405;-37
2024/03/24 06:39:44;;;;;;;6.22;1.50;;;5.70;93.80;;;;;;5074422;28;20051;-37
2024/03/24 06:42:10;;;;;;;3.42;1.50;;;5.70;93.70;;;;;;5074503;28;20032;-37
2024/03/24 06:44:37;;;;;;;6.18;2.60;;;5.70;93.70;;;;;;5074050;28;20495;-34
2024/03/24 06:47:03;;;;;;;4.43;1.63;;;5.70;93.70;;;;;;5074273;28;20384;-37
2024/03/24 06:49:29;;;;;;;5.45;2.03;;;5.80;93.70;;;;;;5074120;28;20419;-38
2024/03/24 06:51:55;;;;;;;5.35;2.53;;;5.70;93.70;;;;;;5074156;28;20017;-36
2024/03/24 06:54:20;;;;;;;9.55;2.17;;;5.80;93.70;;;;;;5073986;28;20020;-37
2024/03/24 06:56:46;;;;;;;5.00;1.95;;;5.80;93.70;;;;;;5073916;28;20385;-34
2024/03/24 06:59:12;;;;;;;4.85;2.20;;;5.80;93.70;;;;;;5073853;28;20093;-31
2024/03/24 07:01:37;;;;;;;6.18;2.10;;;5.90;93.70;;;;;;5073640;28;20017;-32
2024/03/24 07:04:03;;;;;;;5.82;2.38;;;6.00;93.70;;;;;;5072504;28;20028;-34
2024/03/24 07:06:29;;;;;;;7.15;2.30;;;6.00;93.70;;;;;;5073478;28;20119;-34
2024/03/24 07:08:55;;;;;;;5.40;2.50;;;6.10;93.60;;;;;;5073929;28;20095;-31
2024/03/24 07:11:20;;;;;;;4.25;2.22;;;6.10;93.50;;;;;;5073711;28;20028;-30
2024/03/24 07:13:46;;;;;;;5.68;2.03;;;6.20;93.50;;;;;;5073345;28;20467;-38
2024/03/24 07:16:11;;;;;;;6.13;2.40;;;6.20;93.60;;;;;;5072206;28;20032;-30
2024/03/24 07:18:37;;;;;;;6.13;2.42;;;6.20;93.80;;;;;;5073618;28;20031;-30
2024/03/24 07:21:03;;;;;;;4.90;2.22;;;6.20;93.50;;;;;;5073724;28;20508;-34
2024/03/24 07:23:29;;;;;;;4.30;2.00;;;6.20;93.50;;;;;;5073618;28;20428;-30
2024/03/24 07:25:55;;;;;;;4.50;2.17;;;6.20;93.60;;;;;;5073225;28;20503;-34
2024/03/24 07:28:21;;;;;;;3.33;1.95;;;6.20;93.60;;;;;;5073655;28;20024;-36
2024/03/24 07:30:46;;;;;;;4.88;1.85;;;6.30;93.60;;;;;;5073193;28;20063;-31
2024/03/24 07:33:12;;;;;;;4.22;2.60;;;6.30;93.60;;;;;;5073172;28;20028;-35
2024/03/24 07:35:38;;;;;;;3.78;2.08;;;6.30;93.60;;;;;;5073454;28;20122;-30
2024/03/24 07:38:04;;;;;;;4.78;2.33;;;6.40;93.60;;;;;;5073209;28;20119;-32
2024/03/24 07:40:29;;;;;;;5.20;2.50;;;6.40;93.60;;;;;;5072965;28;20474;-31
2024/03/24 07:42:55;;;;;;;7.57;2.92;;;6.50;93.60;;;;;;5072796;28;20040;-34
2024/03/24 07:45:21;;;;;;;5.88;2.80;;;6.50;93.60;;;;;;5072980;28;20119;-35
2024/03/24 07:47:46;;;;;;;6.20;3.20;;;6.50;93.60;;;;;;5071484;28;20033;-32
2024/03/24 07:50:12;;;;;;;8.52;3.10;;;6.50;93.60;;;;;;5073156;28;20074;-31
2024/03/24 07:52:38;;;;;;;8.32;2.95;;;6.50;93.60;;;;;;5072719;28;20029;-34
2024/03/24 07:55:04;;;;;;;8.50;2.63;;;6.40;93.50;;;;;;5072532;28;20389;-31
2024/03/24 07:57:29;;;;;;;6.38;2.60;;;6.50;93.60;;;;;;5072770;28;20052;-32
2024/03/24 07:59:55;;;;;;;6.50;2.78;;;6.50;93.60;;;;;;5072496;28;20103;-30
2024/03/24 08:02:20;;;;;;;10.38;3.15;;;6.50;93.60;;;;;;5072510;28;20032;-31
2024/03/24 08:04:46;;;;;;;7.75;2.78;;;6.60;93.50;;;;;;5071062;28;20051;-31
2024/03/24 08:07:11;;;;;;;7.35;2.80;;;6.70;93.50;;;;;;5072619;28;20052;-36
2024/03/24 08:09:37;;;;;;;6.22;2.85;;;6.70;93.50;;;;;;5072677;28;20074;-37
2024/03/24 08:12:03;;;;;;;12.95;3.63;;;6.90;93.60;;;;;;5072654;28;20056;-32
2024/03/24 08:14:28;;;;;;;14.38;3.75;;;7.00;93.50;;;;;;5071896;28;20021;-31
2024/03/24 08:16:57;;;;;;;18.80;4.47;;;7.10;93.40;;;;;;5072522;28;20084;-31
2024/03/24 08:19:26;;;;;;;13.90;4.15;;;7.10;93.30;;;;;;5072506;28;20025;-31
2024/03/24 08:21:51;;;;;;;13.45;4.35;;;7.20;93.20;;;;;;5072600;28;20032;-33
2024/03/24 08:24:18;;;;;;;13.95;4.35;;;7.20;93.20;;;;;;5072104;28;20051;-35
2024/03/24 08:26:44;;;;;;;12.93;3.92;;;7.30;93.20;;;;;;5072333;28;20047;-34
2024/03/24 08:29:10;;;;;;;17.10;4.88;;;7.40;93.20;;;;;;5072120;28;20021;-31
2024/03/24 08:31:36;;;;;;;11.85;3.88;;;7.60;93.10;;;;;;5072340;28;20461;-33
2024/03/24 08:34:01;;;;;;;17.52;4.07;;;7.60;92.90;;;;;;5072327;28;20029;-30
2024/03/24 08:36:27;;;;;;;10.15;4.28;;;7.70;92.80;;;;;;5071810;28;20049;-30
2024/03/24 08:38:52;;;;;;;11.30;3.83;;;7.70;92.70;;;;;;5072217;28;20418;-32
2024/03/24 08:41:18;;;;;;;11.35;3.00;;;7.70;92.70;;;;;;5072113;28;20017;-30
2024/03/24 08:43:44;;;;;;;10.52;3.08;;;7.70;92.50;;;;;;5072111;28;20029;-34
2024/03/24 08:46:11;;;;;;;9.35;2.55;;;7.50;92.40;;;;;;5071605;28;20024;-28
2024/03/24 08:48:36;;;;;;;8.07;2.88;;;7.40;92.40;;;;;;5071761;28;20473;-35
2024/03/24 08:51:02;;;;;;;4.65;2.15;;;7.30;92.20;;;;;;5071800;28;20067;-31
2024/03/24 08:53:27;;;;;;;6.47;2.60;;;7.30;92.40;;;;;;5071852;28;20095;-32
2024/03/24 08:55:53;;;;;;;6.72;2.58;;;7.30;92.50;;;;;;5071518;28;20025;-31
2024/03/24 08:58:19;;;;;;;6.15;2.65;;;7.30;92.60;;;;;;5071538;28;20035;-30
2024/03/24 09:00:50;;;;;;;8.65;2.60;;;7.30;92.60;;;;;;5071532;28;20029;-30
2024/03/24 09:03:15;;;;;;;9.48;3.22;;;7.40;92.70;;;;;;5071643;28;20028;-34
2024/03/24 09:05:41;;;;;;;10.95;3.42;;;7.50;92.80;;;;;;5071417;28;20027;-31
2024/03/24 09:08:07;;;;;;;9.73;3.30;;;7.50;92.70;;;;;;5071827;28;20103;-30
2024/03/24 09:10:32;;;;;;;9.25;3.40;;;7.60;92.70;;;;;;5071756;28;20025;-32
2024/03/24 09:12:58;;;;;;;13.85;3.95;;;7.70;92.60;;;;;;5071932;28;20021;-33
2024/03/24 09:15:23;;;;;;;13.95;3.60;;;7.70;92.60;;;;;;5071678;28;20024;-39
2024/03/24 09:17:49;;;;;;;8.25;2.83;;;7.70;92.30;;;;;;5071408;28;20108;-31
2024/03/24 09:20:15;;;;;;;9.10;2.92;;;7.70;92.30;;;;;;5071347;28;20489;-30
2024/03/24 09:22:41;;;;;;;10.50;2.20;;;7.70;92.20;;;;;;5071711;28;20072;-32
2024/03/24 09:25:07;;;;;;;7.20;2.15;;;7.70;91.80;;;;;;5071228;28;20052;-35
2024/03/24 09:27:33;;;;;;;5.85;2.25;;;7.60;91.70;;;;;;5075230;28;20469;-32
2024/03/24 09:29:59;;;;;;;8.88;2.30;;;7.50;91.30;;;;;;5074459;28;20016;-31
2024/03/24 09:32:24;;;;;;;6.20;2.33;;;7.40;91.50;;;;;;5075514;28;20240;-31
2024/03/24 09:34:51;;;;;;;7.40;1.98;;;7.40;91.60;;;;;;5075542;28;20044;-32
2024/03/24 09:37:17;;;;;;;6.88;2.08;;;7.30;91.70;;;;;;5075297;28;20056;-31
2024/03/24 09:39:43;;;;;;;6.68;1.90;;;7.30;91.60;;;;;;5075669;28;20027;-31
2024/03/24 09:42:11;;;;;;;7.40;1.95;;;7.20;91.80;;;;;;5075356;28;20020;-32
2024/03/24 09:44:40;;;;;;;10.18;2.60;;;7.10;91.80;;;;;;5075327;28;20488;-30
2024/03/24 09:47:06;;;;;;;7.30;2.80;;;7.10;92.10;;;;;;5074952;28;20025;-30
2024/03/24 09:49:32;;;;;;;10.13;2.92;;;7.10;92.30;;;;;;5075073;28;20492;-30
2024/03/24 09:52:00;;;;;;;7.72;2.60;;;7.00;92.40;;;;;;5075130;28;20024;-30
2024/03/24 09:54:26;;;;;;;6.25;2.35;;;7.00;92.50;;;;;;5074899;28;20587;-33
2024/03/24 09:56:52;;;;;;;8.93;2.67;;;7.00;92.60;;;;;;5074831;28;20108;-29
2024/03/24 09:59:19;;;;;;;10.77;2.40;;;7.00;92.70;;;;;;5074901;28;20029;-33
2024/03/24 10:01:47;;;;;;;10.35;2.53;;;7.00;92.70;;;;;;5074909;28;20035;-39
2024/03/24 10:04:15;;;;;;;7.53;1.98;;;6.90;92.70;;;;;;5074875;28;20102;-31
2024/03/24 10:06:41;;;;;;;9.40;2.15;;;6.90;92.80;;;;;;5074586;28;20082;-30
2024/03/24 10:09:07;;;;;;;5.95;1.80;;;6.80;93.00;;;;;;5074726;28;20030;-30
2024/03/24 10:11:33;;;;;;;7.07;1.65;;;6.80;93.00;;;;;;5074686;28;20013;-35
2024/03/24 10:14:01;;;;;;;4.57;1.67;;;6.80;93.10;;;;;;5074698;28;20020;-34
2024/03/24 10:16:27;;;;;;;5.20;1.90;;;6.80;93.20;;;;;;5074560;28;20021;-36
2024/03/24 10:18:53;;;;;;;6.07;2.05;;;6.80;93.30;;;;;;5074438;28;20028;-37
2024/03/24 10:21:19;;;;;;;7.60;2.00;;;7.00;93.40;;;;;;5074477;28;20035;-35
2024/03/24 10:23:46;;;;;;;5.57;1.70;;;7.10;93.40;;;;;;5074496;28;20024;-36
2024/03/24 10:26:22;;;;;;;9.25;2.38;;;7.20;93.30;;;;;;5074529;28;20032;-33
2024/03/24 10:28:49;;;;;;;3.78;1.60;;;7.40;93.30;;;;;;5074305;28;20020;-38
2024/03/24 10:31:15;;;;;;;7.25;1.95;;;7.50;93.20;;;;;;5074660;28;20492;-35
2024/03/24 10:33:41;;;;;;;7.00;1.92;;;7.60;92.90;;;;;;5074209;28;20020;-31
2024/03/24 10:36:08;;;;;;;7.57;2.10;;;7.60;92.70;;;;;;5073971;28;20051;-33
2024/03/24 10:38:37;;;;;;;7.78;1.85;;;7.60;92.70;;;;;;5074018;28;20028;-33
2024/03/24 10:41:07;;;;;;;6.82;2.10;;;7.60;92.50;;;;;;5074311;28;20536;-31
2024/03/24 10:43:34;;;;;;;8.23;1.85;;;7.70;92.70;;;;;;5074212;28;20496;-31
2024/03/24 10:46:00;;;;;;;6.75;1.70;;;7.70;92.70;;;;;;5073996;28;20029;-37
2024/03/24 10:48:33;;;;;;;6.00;1.92;;;7.90;92.70;;;;;;5073877;28;20082;-33
2024/03/24 10:51:01;;;;;;;7.13;2.05;;;8.00;92.60;;;;;;5073770;28;20103;-34
2024/03/24 10:53:33;;;;;;;5.80;2.13;;;8.00;92.50;;;;;;5073813;28;20050;-35
2024/03/24 10:56:01;;;;;;;5.28;2.03;;;8.10;92.50;;;;;;5073679;28;20109;-32
2024/03/24 10:58:28;;;;;;;8.93;2.33;;;8.20;92.60;;;;;;5073751;28;20060;-35
2024/03/24 11:00:54;;;;;;;8.90;2.28;;;8.30;92.50;;;;;;5073128;28;20480;-33
2024/03/24 11:03:22;;;;;;;7.10;2.03;;;8.40;92.50;;;;;;5073955;28;20436;-32
2024/03/24 11:05:51;;;;;;;13.43;3.40;;;8.40;92.30;;;;;;5073394;28;20044;-33
2024/03/24 11:08:20;;;;;;;7.68;2.28;;;8.40;92.20;;;;;;5073619;28;20065;-34
2024/03/24 11:10:48;;;;;;;8.68;2.10;;;8.40;92.00;;;;;;5073651;28;20039;-32
2024/03/24 11:13:20;;;;;;;7.28;2.10;;;8.40;91.80;;;;;;5073694;28;20017;-33
2024/03/24 11:15:46;;;;;;;14.88;2.72;;;8.40;91.90;;;;;;5073381;28;20119;-30
2024/03/24 11:18:26;;;;;;;9.25;2.63;;;8.40;91.80;;;;;;5073527;28;20059;-30
2024/03/24 11:20:53;;;;;;;7.40;2.13;;;8.50;91.80;;;;;;5073673;28;20515;-31
2024/03/24 11:23:19;;;;;;;7.57;2.03;;;8.50;91.80;;;;;;5073407;28;20020;-33
2024/03/24 11:25:50;;;;;;;10.15;2.33;;;8.60;91.70;;;;;;5073303;28;20381;-30
2024/03/24 11:28:45;;;;;;;7.03;3.10;;;8.70;91.80;;;;;;5073309;28;20528;-33
2024/03/24 11:31:20;;;;;;;10.93;3.03;;;8.90;91.50;;;;;;5073128;28;20035;-30
2024/03/24 11:34:06;;;;;;;11.27;2.92;;;9.00;91.00;;;;;;5073018;28;20091;-33
2024/03/24 11:36:34;;;;;;;12.50;3.40;;;9.00;90.50;;;;;;5072584;28;20045;-31
2024/03/24 11:39:02;;;;;;;13.07;2.40;;;9.00;90.30;;;;;;5073053;28;20447;-30
2024/03/24 11:41:28;;;;;;;12.02;2.70;;;9.00;90.40;;;;;;5072777;28;20035;-33
2024/03/24 11:44:02;;;;;;;11.25;3.40;;;8.90;90.10;;;;;;5073119;28;20024;-31
2024/03/24 11:46:30;;;;;;;15.65;3.05;;;8.80;90.40;;;;;;5073011;28;20024;-33
2024/03/24 11:48:57;;;;;;;16.27;2.90;;;8.70;90.70;;;;;;5071997;28;20023;-33
2024/03/24 11:51:24;;;;;;;10.48;2.42;;;8.70;90.70;;;;;;5072853;28;20021;-33
2024/03/24 11:53:51;;;;;;;10.50;2.88;;;8.70;90.70;;;;;;5072933;28;20021;-30
2024/03/24 11:56:20;;;;;;;10.13;2.67;;;8.60;90.70;;;;;;5072857;28;20020;-32
2024/03/24 11:58:48;;;;;;;9.63;2.38;;;8.60;90.80;;;;;;5072771;28;20435;-33
2024/03/24 12:01:15;;;;;;;14.35;2.65;;;8.60;91.00;;;;;;5073089;28;20108;-35
2024/03/24 12:03:40;;;;;;;7.53;1.95;;;8.70;91.10;;;;;;5072423;28;20067;-33
2024/03/24 12:06:07;;;;;;;10.15;2.70;;;8.70;91.00;;;;;;5072127;28;20051;-34
2024/03/24 12:08:34;;;;;;;10.40;2.03;;;8.80;90.70;;;;;;5072399;28;20100;-30
2024/03/24 12:11:00;;;;;;;8.52;1.90;;;8.80;90.20;;;;;;5072401;28;20107;-31
2024/03/24 12:13:25;;;;;;;12.85;2.17;;;8.70;90.20;;;;;;5072728;28;20039;-35
2024/03/24 12:15:51;;;;;;;7.93;1.95;;;8.60;90.40;;;;;;5072365;28;20067;-31
2024/03/24 12:18:17;;;;;;;9.93;2.60;;;8.60;90.80;;;;;;5072393;28;20055;-35
2024/03/24 12:20:43;;;;;;;9.70;2.08;;;8.60;90.80;;;;;;5072400;28;20461;-36
2024/03/24 12:23:09;;;;;;;10.52;2.33;;;8.60;90.70;;;;;;5072383;28;20154;-35
2024/03/24 12:25:34;;;;;;;8.18;2.28;;;8.70;90.70;;;;;;5071991;28;20060;-31
2024/03/24 12:28:00;;;;;;;8.27;1.98;;;8.70;90.20;;;;;;5071943;28;20514;-31
2024/03/24 12:30:27;;;;;;;9.55;2.28;;;8.70;90.20;;;;;;5072018;28;20034;-32
2024/03/24 12:32:56;;;;;;;10.02;2.63;;;8.70;90.50;;;;;;5071916;28;20017;-31
2024/03/24 12:35:22;;;;;;;7.70;2.70;;;8.80;90.60;;;;;;5071858;28;20134;-30
2024/03/24 12:37:49;;;;;;;11.07;2.65;;;8.90;90.50;;;;;;5071777;28;20556;-32
2024/03/24 12:40:20;;;;;;;7.45;2.10;;;9.00;90.10;;;;;;5071879;28;20062;-36
2024/03/24 12:42:49;;;;;;;11.10;2.33;;;9.10;89.80;;;;;;5071610;28;20468;-42
2024/03/24 12:45:16;;;;;;;8.88;2.05;;;9.20;87.50;;;;;;5071834;28;20055;-30
2024/03/24 12:47:42;;;;;;;9.82;2.30;;;9.30;87.30;;;;;;5071900;28;20029;-31
2024/03/24 12:50:26;;;;;;;10.88;2.60;;;9.40;86.80;;;;;;5071974;28;20048;-35